sensor_id;sensor_type;location;lat;lon;timestamp;P1;durP1;ratioP1;P2;durP2;ratioP2
9238;SDS011;4654;43.242;27.976;2024-03-23T00:53:43;10.53;;;7.93;;
9238;SDS011;4654;43.242;27.976;2024-03-23T00:56:09;10.37;;;8.13;;
9238;SDS011;4654;43.242;27.976;2024-03-23T00:58:36;12.50;;;8.57;;
9238;SDS011;4654;43.242;27.976;2024-03-23T01:01:02;13.23;;;8.70;;
9238;SDS011;4654;43.242;27.976;2024-03-23T01:03:30;10.87;;;7.70;;
9238;SDS011;4654;43.242;27.976;2024-03-23T01:05:58;10.37;;;8.00;;
9238;SDS011;4654;43.242;27.976;2024-03-23T01:08:26;11.17;;;8.73;;
9238;SDS011;4654;43.242;27.976;2024-03-23T01:10:56;12.17;;;9.60;;
9238;SDS011;4654;43.242;27.976;2024-03-23T01:13:25;10.87;;;8.50;;
9238;SDS011;4654;43.242;27.976;2024-03-23T01:15:52;13.07;;;9.30;;
9238;SDS011;4654;43.242;27.976;2024-03-23T01:18:20;13.13;;;9.50;;
9238;SDS011;4654;43.242;27.976;2024-03-23T01:20:47;10.70;;;8.67;;
9238;SDS011;4654;43.242;27.976;2024-03-23T01:23:14;12.23;;;9.43;;
9238;SDS011;4654;43.242;27.976;2024-03-23T01:25:40;11.97;;;8.90;;
9238;SDS011;4654;43.242;27.976;2024-03-23T01:28:09;13.33;;;9.70;;
9238;SDS011;4654;43.242;27.976;2024-03-23T01:30:35;12.37;;;9.60;;
9238;SDS011;4654;43.242;27.976;2024-03-23T01:33:02;12.40;;;9.40;;
9238;SDS011;4654;43.242;27.976;2024-03-23T01:35:28;12.40;;;9.57;;
9238;SDS011;4654;43.242;27.976;2024-03-23T01:37:56;11.80;;;9.23;;
9238;SDS011;4654;43.242;27.976;2024-03-23T01:40:22;12.17;;;8.33;;
9238;SDS011;4654;43.242;27.976;2024-03-23T01:42:55;11.47;;;8.33;;
9238;SDS011;4654;43.242;27.976;2024-03-23T01:45:23;12.20;;;9.23;;
9238;SDS011;4654;43.242;27.976;2024-03-23T01:47:50;15.57;;;11.60;;
9238;SDS011;4654;43.242;27.976;2024-03-23T01:50:18;17.00;;;13.47;;
9238;SDS011;4654;43.242;27.976;2024-03-23T01:52:46;19.17;;;12.57;;
9238;SDS011;4654;43.242;27.976;2024-03-23T01:55:12;16.40;;;11.83;;
9238;SDS011;4654;43.242;27.976;2024-03-23T01:57:39;16.80;;;11.53;;
9238;SDS011;4654;43.242;27.976;2024-03-23T02:00:06;17.50;;;12.20;;
9238;SDS011;4654;43.242;27.976;2024-03-23T02:02:36;16.37;;;11.10;;
9238;SDS011;4654;43.242;27.976;2024-03-23T02:05:06;17.93;;;12.00;;
9238;SDS011;4654;43.242;27.976;2024-03-23T02:07:33;15.17;;;10.50;;
9238;SDS011;4654;43.242;27.976;2024-03-23T02:10:00;16.00;;;9.97;;
9238;SDS011;4654;43.242;27.976;2024-03-23T02:12:27;14.20;;;10.53;;
9238;SDS011;4654;43.242;27.976;2024-03-23T02:14:53;14.73;;;10.50;;
9238;SDS011;4654;43.242;27.976;2024-03-23T02:17:21;14.47;;;10.70;;
9238;SDS011;4654;43.242;27.976;2024-03-23T02:19:48;12.80;;;9.83;;
9238;SDS011;4654;43.242;27.976;2024-03-23T02:22:16;14.47;;;9.93;;
9238;SDS011;4654;43.242;27.976;2024-03-23T02:24:44;12.13;;;9.27;;
9238;SDS011;4654;43.242;27.976;2024-03-23T02:27:11;11.57;;;9.57;;
9238;SDS011;4654;43.242;27.976;2024-03-23T02:29:38;12.37;;;8.97;;
9238;SDS011;4654;43.242;27.976;2024-03-23T02:32:05;12.93;;;9.27;;
9238;SDS011;4654;43.242;27.976;2024-03-23T02:34:34;12.47;;;8.40;;
9238;SDS011;4654;43.242;27.976;2024-03-23T02:37:01;10.97;;;8.67;;
9238;SDS011;4654;43.242;27.976;2024-03-23T02:39:27;10.47;;;8.17;;
9238;SDS011;4654;43.242;27.976;2024-03-23T02:41:56;10.67;;;7.40;;
9238;SDS011;4654;43.242;27.976;2024-03-23T02:44:22;11.07;;;7.60;;
9238;SDS011;4654;43.242;27.976;2024-03-23T02:46:49;10.70;;;7.00;;
9238;SDS011;4654;43.242;27.976;2024-03-23T02:49:15;10.40;;;7.43;;
9238;SDS011;4654;43.242;27.976;2024-03-23T02:51:42;10.33;;;8.30;;
9238;SDS011;4654;43.242;27.976;2024-03-23T02:54:10;9.83;;;7.20;;
9238;SDS011;4654;43.242;27.976;2024-03-23T02:56:37;8.43;;;6.77;;
9238;SDS011;4654;43.242;27.976;2024-03-23T02:59:05;9.70;;;7.40;;
9238;SDS011;4654;43.242;27.976;2024-03-23T03:01:32;8.20;;;6.93;;
9238;SDS011;4654;43.242;27.976;2024-03-23T03:03:58;9.93;;;7.40;;
9238;SDS011;4654;43.242;27.976;2024-03-23T03:06:27;8.23;;;6.90;;
9238;SDS011;4654;43.242;27.976;2024-03-23T03:08:53;9.97;;;7.60;;
9238;SDS011;4654;43.242;27.976;2024-03-23T03:11:20;9.43;;;7.43;;
9238;SDS011;4654;43.242;27.976;2024-03-23T03:13:47;8.67;;;7.10;;
9238;SDS011;4654;43.242;27.976;2024-03-23T03:16:15;9.73;;;7.73;;
9238;SDS011;4654;43.242;27.976;2024-03-23T03:18:41;9.13;;;7.33;;
9238;SDS011;4654;43.242;27.976;2024-03-23T03:21:09;10.10;;;7.77;;
9238;SDS011;4654;43.242;27.976;2024-03-23T03:23:36;9.50;;;7.60;;
9238;SDS011;4654;43.242;27.976;2024-03-23T03:26:03;9.80;;;7.50;;
9238;SDS011;4654;43.242;27.976;2024-03-23T03:28:30;10.57;;;8.43;;
9238;SDS011;4654;43.242;27.976;2024-03-23T03:30:58;10.80;;;7.83;;
9238;SDS011;4654;43.242;27.976;2024-03-23T03:33:25;11.30;;;8.57;;
9238;SDS011;4654;43.242;27.976;2024-03-23T03:35:53;10.73;;;7.83;;
9238;SDS011;4654;43.242;27.976;2024-03-23T03:38:19;11.37;;;8.40;;
9238;SDS011;4654;43.242;27.976;2024-03-23T03:40:46;9.40;;;8.03;;
9238;SDS011;4654;43.242;27.976;2024-03-23T03:43:12;9.73;;;7.43;;
9238;SDS011;4654;43.242;27.976;2024-03-23T03:45:40;10.27;;;7.23;;
9238;SDS011;4654;43.242;27.976;2024-03-23T03:48:06;10.30;;;7.17;;
9238;SDS011;4654;43.242;27.976;2024-03-23T03:50:35;10.50;;;7.77;;
9238;SDS011;4654;43.242;27.976;2024-03-23T03:53:01;9.40;;;8.03;;
9238;SDS011;4654;43.242;27.976;2024-03-23T03:55:29;8.70;;;7.30;;
9238;SDS011;4654;43.242;27.976;2024-03-23T03:57:55;8.37;;;6.43;;
9238;SDS011;4654;43.242;27.976;2024-03-23T04:00:22;10.87;;;7.40;;
9238;SDS011;4654;43.242;27.976;2024-03-23T04:02:48;9.37;;;7.17;;
9238;SDS011;4654;43.242;27.976;2024-03-23T04:05:16;8.83;;;7.43;;
9238;SDS011;4654;43.242;27.976;2024-03-23T04:07:43;9.13;;;7.40;;
9238;SDS011;4654;43.242;27.976;2024-03-23T04:10:10;10.63;;;7.77;;
9238;SDS011;4654;43.242;27.976;2024-03-23T04:12:36;8.83;;;6.93;;
9238;SDS011;4654;43.242;27.976;2024-03-23T04:15:04;11.63;;;7.10;;
9238;SDS011;4654;43.242;27.976;2024-03-23T04:17:31;10.43;;;7.50;;
9238;SDS011;4654;43.242;27.976;2024-03-23T04:19:59;10.47;;;7.60;;
9238;SDS011;4654;43.242;27.976;2024-03-23T04:22:26;9.07;;;7.57;;
9238;SDS011;4654;43.242;27.976;2024-03-23T04:24:55;10.13;;;8.23;;
9238;SDS011;4654;43.242;27.976;2024-03-23T04:27:22;8.30;;;7.17;;
9238;SDS011;4654;43.242;27.976;2024-03-23T04:29:49;9.23;;;7.03;;
9238;SDS011;4654;43.242;27.976;2024-03-23T04:32:15;8.37;;;6.90;;
9238;SDS011;4654;43.242;27.976;2024-03-23T04:34:43;8.07;;;6.63;;
9238;SDS011;4654;43.242;27.976;2024-03-23T04:37:09;11.00;;;7.80;;
9238;SDS011;4654;43.242;27.976;2024-03-23T04:39:37;9.73;;;7.70;;
9238;SDS011;4654;43.242;27.976;2024-03-23T04:42:06;8.30;;;6.87;;
9238;SDS011;4654;43.242;27.976;2024-03-23T04:44:33;7.93;;;7.10;;
9238;SDS011;4654;43.242;27.976;2024-03-23T04:47:01;7.57;;;6.33;;
9238;SDS011;4654;43.242;27.976;2024-03-23T04:49:28;7.53;;;6.83;;
9238;SDS011;4654;43.242;27.976;2024-03-23T04:51:55;8.03;;;6.17;;
9238;SDS011;4654;43.242;27.976;2024-03-23T04:54:22;7.70;;;6.17;;
9238;SDS011;4654;43.242;27.976;2024-03-23T04:56:49;7.13;;;6.43;;
9238;SDS011;4654;43.242;27.976;2024-03-23T04:59:17;6.80;;;6.10;;
9238;SDS011;4654;43.242;27.976;2024-03-23T05:01:44;8.23;;;6.17;;
9238;SDS011;4654;43.242;27.976;2024-03-23T05:04:10;6.43;;;5.83;;
9238;SDS011;4654;43.242;27.976;2024-03-23T05:06:37;7.30;;;6.50;;
9238;SDS011;4654;43.242;27.976;2024-03-23T05:09:03;6.70;;;6.10;;
9238;SDS011;4654;43.242;27.976;2024-03-23T05:11:32;7.53;;;5.83;;
9238;SDS011;4654;43.242;27.976;2024-03-23T05:13:59;6.73;;;5.43;;
9238;SDS011;4654;43.242;27.976;2024-03-23T05:16:29;6.30;;;5.63;;
9238;SDS011;4654;43.242;27.976;2024-03-23T05:18:55;6.90;;;6.20;;
9238;SDS011;4654;43.242;27.976;2024-03-23T05:21:22;6.27;;;5.57;;
9238;SDS011;4654;43.242;27.976;2024-03-23T05:23:49;5.93;;;5.27;;
9238;SDS011;4654;43.242;27.976;2024-03-23T05:26:16;6.60;;;5.40;;
9238;SDS011;4654;43.242;27.976;2024-03-23T05:28:42;5.57;;;5.07;;
9238;SDS011;4654;43.242;27.976;2024-03-23T05:31:10;6.70;;;5.22;;
9238;SDS011;4654;43.242;27.976;2024-03-23T05:33:37;4.63;;;4.22;;
9238;SDS011;4654;43.242;27.976;2024-03-23T05:36:05;4.70;;;4.30;;
9238;SDS011;4654;43.242;27.976;2024-03-23T05:38:33;4.78;;;4.30;;
9238;SDS011;4654;43.242;27.976;2024-03-23T05:41:01;5.07;;;4.68;;
9238;SDS011;4654;43.242;27.976;2024-03-23T05:43:27;4.70;;;4.30;;
9238;SDS011;4654;43.242;27.976;2024-03-23T05:45:55;4.78;;;4.38;;
9238;SDS011;4654;43.242;27.976;2024-03-23T05:48:21;4.07;;;3.78;;
9238;SDS011;4654;43.242;27.976;2024-03-23T05:50:50;4.72;;;4.32;;
9238;SDS011;4654;43.242;27.976;2024-03-23T05:53:16;5.05;;;4.65;;
9238;SDS011;4654;43.242;27.976;2024-03-23T05:55:45;5.45;;;4.95;;
9238;SDS011;4654;43.242;27.976;2024-03-23T05:58:14;5.10;;;4.70;;
9238;SDS011;4654;43.242;27.976;2024-03-23T06:00:41;4.95;;;4.55;;
9238;SDS011;4654;43.242;27.976;2024-03-23T06:03:08;4.70;;;4.30;;
9238;SDS011;4654;43.242;27.976;2024-03-23T06:05:35;4.40;;;4.00;;
9238;SDS011;4654;43.242;27.976;2024-03-23T06:08:03;5.32;;;4.00;;
9238;SDS011;4654;43.242;27.976;2024-03-23T06:10:30;3.75;;;3.45;;
9238;SDS011;4654;43.242;27.976;2024-03-23T06:12:57;4.57;;;4.18;;
9238;SDS011;4654;43.242;27.976;2024-03-23T06:15:24;3.92;;;3.63;;
9238;SDS011;4654;43.242;27.976;2024-03-23T06:17:52;4.07;;;3.78;;
9238;SDS011;4654;43.242;27.976;2024-03-23T06:20:19;4.90;;;4.03;;
9238;SDS011;4654;43.242;27.976;2024-03-23T06:22:46;4.40;;;4.10;;
9238;SDS011;4654;43.242;27.976;2024-03-23T06:25:14;4.20;;;3.80;;
9238;SDS011;4654;43.242;27.976;2024-03-23T06:27:40;3.88;;;3.58;;
9238;SDS011;4654;43.242;27.976;2024-03-23T06:30:08;3.95;;;3.63;;
9238;SDS011;4654;43.242;27.976;2024-03-23T06:32:35;4.28;;;3.88;;
9238;SDS011;4654;43.242;27.976;2024-03-23T06:35:02;4.50;;;4.20;;
9238;SDS011;4654;43.242;27.976;2024-03-23T06:37:33;4.15;;;3.85;;
9238;SDS011;4654;43.242;27.976;2024-03-23T06:40:00;4.20;;;3.90;;
9238;SDS011;4654;43.242;27.976;2024-03-23T06:42:28;4.63;;;4.30;;
9238;SDS011;4654;43.242;27.976;2024-03-23T06:44:55;4.35;;;3.95;;
9238;SDS011;4654;43.242;27.976;2024-03-23T06:47:21;4.55;;;4.15;;
9238;SDS011;4654;43.242;27.976;2024-03-23T06:49:48;4.85;;;4.45;;
9238;SDS011;4654;43.242;27.976;2024-03-23T06:52:14;4.97;;;4.47;;
9238;SDS011;4654;43.242;27.976;2024-03-23T06:54:41;4.65;;;4.25;;
9238;SDS011;4654;43.242;27.976;2024-03-23T06:57:09;5.13;;;4.63;;
9238;SDS011;4654;43.242;27.976;2024-03-23T06:59:38;5.28;;;4.78;;
9238;SDS011;4654;43.242;27.976;2024-03-23T07:02:05;4.82;;;4.43;;
9238;SDS011;4654;43.242;27.976;2024-03-23T07:04:33;5.03;;;4.57;;
9238;SDS011;4654;43.242;27.976;2024-03-23T07:06:59;4.60;;;4.20;;
9238;SDS011;4654;43.242;27.976;2024-03-23T07:09:27;4.38;;;4.07;;
9238;SDS011;4654;43.242;27.976;2024-03-23T07:11:54;4.82;;;4.43;;
9238;SDS011;4654;43.242;27.976;2024-03-23T07:14:21;4.97;;;4.47;;
9238;SDS011;4654;43.242;27.976;2024-03-23T07:16:49;5.15;;;4.63;;
9238;SDS011;4654;43.242;27.976;2024-03-23T07:19:17;4.40;;;4.10;;
9238;SDS011;4654;43.242;27.976;2024-03-23T07:21:43;5.38;;;4.20;;
9238;SDS011;4654;43.242;27.976;2024-03-23T07:24:11;4.72;;;4.32;;
9238;SDS011;4654;43.242;27.976;2024-03-23T07:26:37;4.68;;;4.28;;
9238;SDS011;4654;43.242;27.976;2024-03-23T07:29:05;5.30;;;4.90;;
9238;SDS011;4654;43.242;27.976;2024-03-23T07:31:31;5.43;;;4.90;;
9238;SDS011;4654;43.242;27.976;2024-03-23T07:34:00;4.70;;;4.30;;
9238;SDS011;4654;43.242;27.976;2024-03-23T07:36:26;5.43;;;4.10;;
9238;SDS011;4654;43.242;27.976;2024-03-23T07:38:53;4.40;;;4.00;;
9238;SDS011;4654;43.242;27.976;2024-03-23T07:41:20;4.13;;;3.83;;
9238;SDS011;4654;43.242;27.976;2024-03-23T07:43:47;4.50;;;4.10;;
9238;SDS011;4654;43.242;27.976;2024-03-23T07:46:14;4.25;;;3.95;;
9238;SDS011;4654;43.242;27.976;2024-03-23T07:48:42;4.07;;;3.78;;
9238;SDS011;4654;43.242;27.976;2024-03-23T07:51:10;5.35;;;4.38;;
9238;SDS011;4654;43.242;27.976;2024-03-23T07:53:42;4.63;;;4.13;;
9238;SDS011;4654;43.242;27.976;2024-03-23T07:56:09;4.43;;;4.05;;
9238;SDS011;4654;43.242;27.976;2024-03-23T07:58:37;4.13;;;3.75;;
9238;SDS011;4654;43.242;27.976;2024-03-23T08:01:05;4.65;;;4.28;;
9238;SDS011;4654;43.242;27.976;2024-03-23T08:03:34;4.22;;;3.92;;
9238;SDS011;4654;43.242;27.976;2024-03-23T08:06:06;5.20;;;4.10;;
9238;SDS011;4654;43.242;27.976;2024-03-23T08:08:36;4.40;;;4.00;;
9238;SDS011;4654;43.242;27.976;2024-03-23T08:11:02;4.00;;;3.70;;
9238;SDS011;4654;43.242;27.976;2024-03-23T08:13:30;4.50;;;4.10;;
9238;SDS011;4654;43.242;27.976;2024-03-23T08:15:56;4.22;;;3.83;;
9238;SDS011;4654;43.242;27.976;2024-03-23T08:18:24;4.90;;;4.03;;
9238;SDS011;4654;43.242;27.976;2024-03-23T08:20:56;4.43;;;4.13;;
9238;SDS011;4654;43.242;27.976;2024-03-23T08:23:24;4.30;;;4.00;;
9238;SDS011;4654;43.242;27.976;2024-03-23T08:25:52;4.60;;;4.20;;
9238;SDS011;4654;43.242;27.976;2024-03-23T08:28:24;4.95;;;4.40;;
9238;SDS011;4654;43.242;27.976;2024-03-23T08:30:50;4.03;;;3.65;;
9238;SDS011;4654;43.242;27.976;2024-03-23T08:33:18;4.90;;;4.50;;
9238;SDS011;4654;43.242;27.976;2024-03-23T08:35:52;4.97;;;4.57;;
9238;SDS011;4654;43.242;27.976;2024-03-23T08:38:21;5.25;;;4.72;;
9238;SDS011;4654;43.242;27.976;2024-03-23T08:40:47;5.72;;;5.05;;
9238;SDS011;4654;43.242;27.976;2024-03-23T08:43:16;5.50;;;5.00;;
9238;SDS011;4654;43.242;27.976;2024-03-23T08:45:42;6.22;;;4.40;;
9238;SDS011;4654;43.242;27.976;2024-03-23T08:48:09;4.93;;;4.53;;
9238;SDS011;4654;43.242;27.976;2024-03-23T08:50:35;6.10;;;5.03;;
9238;SDS011;4654;43.242;27.976;2024-03-23T08:53:02;5.22;;;4.82;;
9238;SDS011;4654;43.242;27.976;2024-03-23T08:55:29;5.30;;;4.80;;
9238;SDS011;4654;43.242;27.976;2024-03-23T08:57:56;5.93;;;5.43;;
9238;SDS011;4654;43.242;27.976;2024-03-23T09:00:24;5.43;;;5.03;;
9238;SDS011;4654;43.242;27.976;2024-03-23T09:02:51;6.20;;;5.70;;
9238;SDS011;4654;43.242;27.976;2024-03-23T09:05:19;6.00;;;5.40;;
9238;SDS011;4654;43.242;27.976;2024-03-23T09:07:46;6.13;;;5.53;;
9238;SDS011;4654;43.242;27.976;2024-03-23T09:10:12;6.30;;;5.30;;
9238;SDS011;4654;43.242;27.976;2024-03-23T09:12:39;5.80;;;5.40;;
9238;SDS011;4654;43.242;27.976;2024-03-23T09:15:06;5.72;;;5.22;;
9238;SDS011;4654;43.242;27.976;2024-03-23T09:17:35;6.55;;;6.03;;
9238;SDS011;4654;43.242;27.976;2024-03-23T09:20:01;6.28;;;5.65;;
9238;SDS011;4654;43.242;27.976;2024-03-23T09:22:29;6.70;;;6.10;;
9238;SDS011;4654;43.242;27.976;2024-03-23T09:24:55;8.63;;;7.93;;
9238;SDS011;4654;43.242;27.976;2024-03-23T09:27:23;9.07;;;8.18;;
9238;SDS011;4654;43.242;27.976;2024-03-23T09:29:49;9.57;;;8.30;;
9238;SDS011;4654;43.242;27.976;2024-03-23T09:32:16;9.27;;;8.48;;
9238;SDS011;4654;43.242;27.976;2024-03-23T09:34:43;8.70;;;7.88;;
9238;SDS011;4654;43.242;27.976;2024-03-23T09:37:11;8.57;;;7.10;;
9238;SDS011;4654;43.242;27.976;2024-03-23T09:39:37;7.75;;;7.15;;
9238;SDS011;4654;43.242;27.976;2024-03-23T09:42:04;8.05;;;7.25;;
9238;SDS011;4654;43.242;27.976;2024-03-23T09:44:32;7.78;;;6.97;;
9238;SDS011;4654;43.242;27.976;2024-03-23T09:46:59;9.05;;;7.22;;
9238;SDS011;4654;43.242;27.976;2024-03-23T09:49:25;7.57;;;6.47;;
9238;SDS011;4654;43.242;27.976;2024-03-23T09:51:54;7.68;;;6.85;;
9238;SDS011;4654;43.242;27.976;2024-03-23T09:54:21;6.68;;;5.68;;
9238;SDS011;4654;43.242;27.976;2024-03-23T09:56:48;6.07;;;5.53;;
9238;SDS011;4654;43.242;27.976;2024-03-23T09:59:15;6.65;;;6.05;;
9238;SDS011;4654;43.242;27.976;2024-03-23T10:01:42;5.82;;;5.32;;
9238;SDS011;4654;43.242;27.976;2024-03-23T10:04:09;6.53;;;5.18;;
9238;SDS011;4654;43.242;27.976;2024-03-23T10:06:36;5.53;;;5.03;;
9238;SDS011;4654;43.242;27.976;2024-03-23T10:09:04;5.30;;;4.80;;
9238;SDS011;4654;43.242;27.976;2024-03-23T10:11:43;5.93;;;4.75;;
9238;SDS011;4654;43.242;27.976;2024-03-23T10:14:15;4.97;;;4.55;;
9238;SDS011;4654;43.242;27.976;2024-03-23T10:16:57;7.55;;;4.63;;
9238;SDS011;4654;43.242;27.976;2024-03-23T10:19:39;4.45;;;4.03;;
9238;SDS011;4654;43.242;27.976;2024-03-23T10:22:07;7.10;;;4.63;;
9238;SDS011;4654;43.242;27.976;2024-03-23T10:24:35;5.82;;;4.80;;
9238;SDS011;4654;43.242;27.976;2024-03-23T10:27:02;5.00;;;4.50;;
9238;SDS011;4654;43.242;27.976;2024-03-23T10:29:28;5.88;;;4.65;;
9238;SDS011;4654;43.242;27.976;2024-03-23T10:32:07;4.35;;;3.90;;
9238;SDS011;4654;43.242;27.976;2024-03-23T10:34:34;5.53;;;4.63;;
9238;SDS011;4654;43.242;27.976;2024-03-23T10:37:02;4.93;;;4.43;;
9238;SDS011;4654;43.242;27.976;2024-03-23T10:39:30;4.67;;;4.17;;
9238;SDS011;4654;43.242;27.976;2024-03-23T10:42:03;5.45;;;4.72;;
9238;SDS011;4654;43.242;27.976;2024-03-23T10:44:30;5.10;;;4.43;;
9238;SDS011;4654;43.242;27.976;2024-03-23T10:46:58;6.03;;;4.50;;
9238;SDS011;4654;43.242;27.976;2024-03-23T10:49:26;4.67;;;3.93;;
9238;SDS011;4654;43.242;27.976;2024-03-23T10:51:59;4.63;;;4.23;;
9238;SDS011;4654;43.242;27.976;2024-03-23T10:54:26;5.83;;;4.43;;
9238;SDS011;4654;43.242;27.976;2024-03-23T10:57:01;6.27;;;4.60;;
9238;SDS011;4654;43.242;27.976;2024-03-23T10:59:33;4.93;;;4.23;;
9238;SDS011;4654;43.242;27.976;2024-03-23T11:02:02;6.20;;;4.50;;
9238;SDS011;4654;43.242;27.976;2024-03-23T11:04:29;4.67;;;4.23;;
9238;SDS011;4654;43.242;27.976;2024-03-23T11:06:57;4.33;;;3.93;;
9238;SDS011;4654;43.242;27.976;2024-03-23T11:09:40;5.10;;;4.60;;
9238;SDS011;4654;43.242;27.976;2024-03-23T11:12:30;4.63;;;4.20;;
9238;SDS011;4654;43.242;27.976;2024-03-23T11:15:01;5.43;;;4.30;;
9238;SDS011;4654;43.242;27.976;2024-03-23T11:17:30;5.70;;;3.97;;
9238;SDS011;4654;43.242;27.976;2024-03-23T11:19:57;5.60;;;4.23;;
9238;SDS011;4654;43.242;27.976;2024-03-23T11:22:43;5.23;;;4.73;;
9238;SDS011;4654;43.242;27.976;2024-03-23T11:25:18;5.60;;;4.30;;
9238;SDS011;4654;43.242;27.976;2024-03-23T11:27:48;5.90;;;4.83;;
9238;SDS011;4654;43.242;27.976;2024-03-23T11:30:16;5.60;;;5.10;;
9238;SDS011;4654;43.242;27.976;2024-03-23T11:32:44;5.50;;;5.00;;
9238;SDS011;4654;43.242;27.976;2024-03-23T11:35:24;5.70;;;5.10;;
9238;SDS011;4654;43.242;27.976;2024-03-23T11:38:05;6.70;;;5.37;;
9238;SDS011;4654;43.242;27.976;2024-03-23T11:40:33;6.30;;;5.20;;
9238;SDS011;4654;43.242;27.976;2024-03-23T11:43:02;7.20;;;5.00;;
9238;SDS011;4654;43.242;27.976;2024-03-23T11:45:31;6.43;;;4.83;;
9238;SDS011;4654;43.242;27.976;2024-03-23T11:48:05;5.80;;;5.20;;
9238;SDS011;4654;43.242;27.976;2024-03-23T11:50:32;6.13;;;5.53;;
9238;SDS011;4654;43.242;27.976;2024-03-23T11:53:12;6.03;;;5.10;;
9238;SDS011;4654;43.242;27.976;2024-03-23T11:55:46;5.40;;;4.87;;
9238;SDS011;4654;43.242;27.976;2024-03-23T11:58:16;5.90;;;5.30;;
9238;SDS011;4654;43.242;27.976;2024-03-23T12:00:48;6.47;;;4.93;;
9238;SDS011;4654;43.242;27.976;2024-03-23T12:03:17;6.03;;;5.20;;
9238;SDS011;4654;43.242;27.976;2024-03-23T12:05:47;6.83;;;5.60;;
9238;SDS011;4654;43.242;27.976;2024-03-23T12:08:19;6.70;;;5.80;;
9238;SDS011;4654;43.242;27.976;2024-03-23T12:10:47;7.37;;;5.30;;
9238;SDS011;4654;43.242;27.976;2024-03-23T12:13:18;9.73;;;5.87;;
9238;SDS011;4654;43.242;27.976;2024-03-23T12:15:45;6.43;;;5.43;;
9238;SDS011;4654;43.242;27.976;2024-03-23T12:18:13;7.13;;;5.43;;
9238;SDS011;4654;43.242;27.976;2024-03-23T12:20:40;5.77;;;4.30;;
9238;SDS011;4654;43.242;27.976;2024-03-23T12:23:08;5.77;;;4.30;;
9238;SDS011;4654;43.242;27.976;2024-03-23T12:25:35;5.40;;;4.40;;
9238;SDS011;4654;43.242;27.976;2024-03-23T12:28:03;5.10;;;4.47;;
9238;SDS011;4654;43.242;27.976;2024-03-23T12:30:33;4.27;;;3.87;;
9238;SDS011;4654;43.242;27.976;2024-03-23T12:33:01;4.40;;;4.00;;
9238;SDS011;4654;43.242;27.976;2024-03-23T12:35:28;4.90;;;4.23;;
9238;SDS011;4654;43.242;27.976;2024-03-23T12:37:56;4.67;;;4.17;;
9238;SDS011;4654;43.242;27.976;2024-03-23T12:40:22;4.97;;;4.00;;
9238;SDS011;4654;43.242;27.976;2024-03-23T12:42:50;4.47;;;3.80;;
9238;SDS011;4654;43.242;27.976;2024-03-23T12:45:16;4.47;;;4.07;;
9238;SDS011;4654;43.242;27.976;2024-03-23T12:47:45;5.57;;;3.45;;
9238;SDS011;4654;43.242;27.976;2024-03-23T12:50:11;4.30;;;3.33;;
9238;SDS011;4654;43.242;27.976;2024-03-23T12:52:38;3.97;;;3.53;;
9238;SDS011;4654;43.242;27.976;2024-03-23T12:55:05;5.87;;;3.57;;
9238;SDS011;4654;43.242;27.976;2024-03-23T12:57:33;4.53;;;4.13;;
9238;SDS011;4654;43.242;27.976;2024-03-23T12:59:59;5.67;;;4.50;;
9238;SDS011;4654;43.242;27.976;2024-03-23T13:02:26;7.00;;;6.13;;
9238;SDS011;4654;43.242;27.976;2024-03-23T13:04:54;11.70;;;6.77;;
9238;SDS011;4654;43.242;27.976;2024-03-23T13:07:22;7.90;;;5.80;;
9238;SDS011;4654;43.242;27.976;2024-03-23T13:09:50;7.83;;;7.03;;
9238;SDS011;4654;43.242;27.976;2024-03-23T13:12:18;10.97;;;7.90;;
9238;SDS011;4654;43.242;27.976;2024-03-23T13:14:44;9.03;;;7.60;;
9238;SDS011;4654;43.242;27.976;2024-03-23T13:17:12;9.57;;;8.10;;
9238;SDS011;4654;43.242;27.976;2024-03-23T13:19:38;9.93;;;7.70;;
9238;SDS011;4654;43.242;27.976;2024-03-23T13:22:07;9.63;;;8.03;;
9238;SDS011;4654;43.242;27.976;2024-03-23T13:24:36;9.80;;;7.60;;
9238;SDS011;4654;43.242;27.976;2024-03-23T13:27:05;9.47;;;8.43;;
9238;SDS011;4654;43.242;27.976;2024-03-23T13:29:33;9.50;;;8.07;;
9238;SDS011;4654;43.242;27.976;2024-03-23T13:32:01;11.20;;;8.30;;
9238;SDS011;4654;43.242;27.976;2024-03-23T13:34:27;9.80;;;8.10;;
9238;SDS011;4654;43.242;27.976;2024-03-23T13:36:55;9.40;;;7.73;;
9238;SDS011;4654;43.242;27.976;2024-03-23T13:39:24;8.47;;;7.60;;
9238;SDS011;4654;43.242;27.976;2024-03-23T13:41:53;6.90;;;6.17;;
9238;SDS011;4654;43.242;27.976;2024-03-23T13:44:20;8.03;;;7.07;;
9238;SDS011;4654;43.242;27.976;2024-03-23T13:46:47;8.73;;;6.43;;
9238;SDS011;4654;43.242;27.976;2024-03-23T13:49:20;9.33;;;6.47;;
9238;SDS011;4654;43.242;27.976;2024-03-23T13:51:52;8.63;;;6.83;;
9238;SDS011;4654;43.242;27.976;2024-03-23T13:54:18;6.47;;;5.80;;
9238;SDS011;4654;43.242;27.976;2024-03-23T13:56:48;7.80;;;6.80;;
9238;SDS011;4654;43.242;27.976;2024-03-23T13:59:15;8.13;;;6.77;;
9238;SDS011;4654;43.242;27.976;2024-03-23T14:01:42;8.97;;;5.97;;
9238;SDS011;4654;43.242;27.976;2024-03-23T14:04:09;7.03;;;5.83;;
9238;SDS011;4654;43.242;27.976;2024-03-23T14:06:36;9.37;;;6.60;;
9238;SDS011;4654;43.242;27.976;2024-03-23T14:09:03;8.03;;;6.87;;
9238;SDS011;4654;43.242;27.976;2024-03-23T14:11:34;11.63;;;6.70;;
9238;SDS011;4654;43.242;27.976;2024-03-23T14:14:02;8.87;;;6.00;;
9238;SDS011;4654;43.242;27.976;2024-03-23T14:16:29;7.37;;;6.40;;
9238;SDS011;4654;43.242;27.976;2024-03-23T14:18:55;7.63;;;6.67;;
9238;SDS011;4654;43.242;27.976;2024-03-23T14:21:23;7.53;;;6.40;;
9238;SDS011;4654;43.242;27.976;2024-03-23T14:23:49;8.20;;;6.00;;
9238;SDS011;4654;43.242;27.976;2024-03-23T14:26:17;8.17;;;6.80;;
9238;SDS011;4654;43.242;27.976;2024-03-23T14:28:44;6.70;;;5.80;;
9238;SDS011;4654;43.242;27.976;2024-03-23T14:31:12;5.47;;;4.97;;
9238;SDS011;4654;43.242;27.976;2024-03-23T14:33:39;8.13;;;6.37;;
9238;SDS011;4654;43.242;27.976;2024-03-23T14:36:11;7.40;;;5.20;;
9238;SDS011;4654;43.242;27.976;2024-03-23T14:38:38;6.73;;;5.60;;
9238;SDS011;4654;43.242;27.976;2024-03-23T14:41:05;7.83;;;4.93;;
9238;SDS011;4654;43.242;27.976;2024-03-23T14:43:31;10.40;;;5.07;;
9238;SDS011;4654;43.242;27.976;2024-03-23T14:46:06;8.07;;;5.27;;
9238;SDS011;4654;43.242;27.976;2024-03-23T14:48:34;8.20;;;5.40;;
9238;SDS011;4654;43.242;27.976;2024-03-23T14:51:02;6.30;;;5.17;;
9238;SDS011;4654;43.242;27.976;2024-03-23T14:53:30;7.77;;;5.40;;
9238;SDS011;4654;43.242;27.976;2024-03-23T14:55:58;8.13;;;5.30;;
9238;SDS011;4654;43.242;27.976;2024-03-23T14:58:25;6.03;;;5.23;;
9238;SDS011;4654;43.242;27.976;2024-03-23T15:00:53;10.97;;;8.37;;
9238;SDS011;4654;43.242;27.976;2024-03-23T15:03:26;6.37;;;5.63;;
9238;SDS011;4654;43.242;27.976;2024-03-23T15:05:56;5.87;;;5.20;;
9238;SDS011;4654;43.242;27.976;2024-03-23T15:08:23;8.73;;;5.60;;
9238;SDS011;4654;43.242;27.976;2024-03-23T15:10:51;8.70;;;5.07;;
9238;SDS011;4654;43.242;27.976;2024-03-23T15:13:17;7.97;;;5.40;;
9238;SDS011;4654;43.242;27.976;2024-03-23T15:15:46;9.97;;;6.93;;
9238;SDS011;4654;43.242;27.976;2024-03-23T15:18:14;17.83;;;9.60;;
9238;SDS011;4654;43.242;27.976;2024-03-23T15:20:51;6.50;;;5.07;;
9238;SDS011;4654;43.242;27.976;2024-03-23T15:23:19;7.57;;;5.47;;
9238;SDS011;4654;43.242;27.976;2024-03-23T15:25:53;11.20;;;7.97;;
9238;SDS011;4654;43.242;27.976;2024-03-23T15:28:20;8.30;;;5.97;;
9238;SDS011;4654;43.242;27.976;2024-03-23T15:30:47;7.63;;;6.07;;
9238;SDS011;4654;43.242;27.976;2024-03-23T15:33:13;7.07;;;5.50;;
9238;SDS011;4654;43.242;27.976;2024-03-23T15:35:41;8.07;;;5.73;;
9238;SDS011;4654;43.242;27.976;2024-03-23T15:38:07;6.57;;;5.60;;
9238;SDS011;4654;43.242;27.976;2024-03-23T15:40:37;8.20;;;6.33;;
9238;SDS011;4654;43.242;27.976;2024-03-23T15:43:03;8.47;;;6.90;;
9238;SDS011;4654;43.242;27.976;2024-03-23T15:45:31;7.93;;;5.97;;
9238;SDS011;4654;43.242;27.976;2024-03-23T15:47:57;9.10;;;7.03;;
9238;SDS011;4654;43.242;27.976;2024-03-23T15:50:25;9.87;;;6.57;;
9238;SDS011;4654;43.242;27.976;2024-03-23T15:52:51;7.70;;;6.47;;
9238;SDS011;4654;43.242;27.976;2024-03-23T15:55:20;8.40;;;6.13;;